Time;durP1;ratioP1;P1;durP2;ratioP2;P2;SDS_P1;SDS_P2;PMS_P1;PMS_P2;Temp;Humidity;BMP_temperature;BMP_pressure;BME280_temperature;BME280_humidity;BME280_pressure;Samples;Min_cycle;Max_cycle;Signal;HPM_P1;HPM_P2
2020/12/08 00:01:02;;;;;;;14.07;5.42;;;;;;;-7.10;71.16;102554.84;1753839;80;21269;-89
2020/12/08 00:03:28;;;;;;;20.23;5.28;;;;;;;-7.54;72.31;102576.27;1752686;80;26968;-88
2020/12/08 00:05:53;;;;;;;14.50;4.85;;;;;;;-7.61;72.95;102567.12;1759701;80;26671;-88
2020/12/08 00:08:19;;;;;;;15.58;5.47;;;;;;;-7.92;73.88;102567.26;1766197;80;28948;-88
2020/12/08 00:10:45;;;;;;;16.07;5.22;;;;;;;-8.03;74.26;102570.49;1753637;80;21019;-88
2020/12/08 00:13:11;;;;;;;17.80;4.70;;;;;;;-7.91;73.82;102597.70;1770260;80;21397;-89
2020/12/08 00:15:36;;;;;;;14.85;4.97;;;;;;;-7.68;73.11;102571.50;1757189;80;27038;-88
2020/12/08 00:18:02;;;;;;;18.75;5.90;;;;;;;-7.63;73.56;102567.67;1764999;80;26995;-89
2020/12/08 00:20:28;;;;;;;13.32;4.78;;;;;;;-7.51;73.59;102568.70;1740504;80;28281;-89
2020/12/08 00:22:54;;;;;;;16.05;5.42;;;;;;;-7.79;73.52;102569.54;1749066;80;20969;-88
2020/12/08 00:25:20;;;;;;;19.12;6.03;;;;;;;-7.44;72.74;102569.17;1767565;80;21944;-89
2020/12/08 00:27:46;;;;;;;19.15;6.62;;;;;;;-7.57;73.00;102558.61;1765740;80;27013;-88
2020/12/08 00:30:23;;;;;;;21.90;5.78;;;;;;;-7.38;72.54;102564.42;1767358;80;26754;-88
2020/12/08 00:32:49;;;;;;;18.17;5.92;;;;;;;-7.29;72.27;102563.45;1765879;80;21150;-88
2020/12/08 00:35:15;;;;;;;12.55;5.08;;;;;;;-7.01;72.03;102546.41;1762914;80;21173;-89
2020/12/08 00:37:45;;;;;;;14.73;5.60;;;;;;;-7.42;72.69;102551.13;1760112;80;21200;-89
2020/12/08 00:40:11;;;;;;;17.15;5.90;;;;;;;-7.36;73.17;102548.13;1754185;80;21193;-89
2020/12/08 00:42:39;;;;;;;19.50;6.28;;;;;;;-7.43;72.51;102535.05;1753829;80;21171;-89
2020/12/08 00:45:10;;;;;;;19.50;5.37;;;;;;;-7.68;73.23;102526.53;1758778;80;21201;-89
2020/12/08 00:47:37;;;;;;;14.87;5.53;;;;;;;-7.73;74.06;102530.36;1751102;80;21121;-89
2020/12/08 00:50:05;;;;;;;14.95;4.85;;;;;;;-7.66;74.08;102514.67;1752808;80;21934;-89
2020/12/08 00:52:32;;;;;;;18.50;5.65;;;;;;;-7.54;73.76;102524.39;1760943;80;21128;-89
2020/12/08 00:54:57;;;;;;;15.18;5.17;;;;;;;-7.52;73.48;102521.22;1742711;81;21112;-89
2020/12/08 00:57:23;;;;;;;15.80;5.20;;;;;;;-7.48;73.45;102529.25;1753223;80;28562;-89
2020/12/08 00:59:49;;;;;;;17.75;6.12;;;;;;;-7.62;73.77;102534.01;1757390;80;20924;-89
2020/12/08 01:02:17;;;;;;;15.78;5.55;;;;;;;-7.71;74.21;102520.64;1762260;80;21914;-89
2020/12/08 01:04:44;;;;;;;16.52;5.78;;;;;;;-7.71;74.42;102524.58;1764683;80;21081;-89
2020/12/08 01:07:10;;;;;;;18.42;5.42;;;;;;;-7.79;74.54;102521.97;1750952;80;21551;-88
2020/12/08 01:09:36;;;;;;;16.50;5.67;;;;;;;-7.75;74.69;102516.55;1761816;80;21455;-89
2020/12/08 01:12:03;;;;;;;15.00;4.92;;;;;;;-7.68;74.24;102514.75;1770559;80;21149;-89
2020/12/08 01:14:31;;;;;;;15.65;5.35;;;;;;;-7.50;73.84;102518.49;1772036;80;21165;-89
2020/12/08 01:16:59;;;;;;;14.03;5.17;;;;;;;-7.57;73.95;102534.58;1760973;80;21212;-89
2020/12/08 01:19:25;;;;;;;15.32;5.37;;;;;;;-7.63;73.77;102519.72;1752050;80;21565;-89
2020/12/08 01:21:52;;;;;;;22.77;5.05;;;;;;;-7.59;73.82;102514.66;1764027;80;21561;-89
2020/12/08 01:24:19;;;;;;;17.70;5.80;;;;;;;-7.79;73.95;102514.11;1752994;80;21651;-89
2020/12/08 01:26:46;;;;;;;18.55;5.67;;;;;;;-7.77;74.12;102506.99;1756974;80;21219;-89
2020/12/08 01:29:12;;;;;;;15.40;5.70;;;;;;;-7.92;74.78;102497.45;1760425;80;21120;-89
2020/12/08 01:31:38;;;;;;;16.30;5.35;;;;;;;-7.73;74.07;102522.06;1756505;80;21112;-89
2020/12/08 01:34:05;;;;;;;17.82;5.60;;;;;;;-7.68;73.49;102507.38;1774238;80;21173;-89
2020/12/08 01:36:31;;;;;;;16.00;5.92;;;;;;;-7.54;73.82;102512.14;1765174;80;21082;-88
2020/12/08 01:38:57;;;;;;;15.38;5.37;;;;;;;-7.49;73.17;102517.11;1757086;80;21183;-89
2020/12/08 01:41:23;;;;;;;15.78;5.55;;;;;;;-7.87;74.09;102541.67;1765928;80;27343;-88
2020/12/08 01:43:51;;;;;;;16.73;5.72;;;;;;;-7.62;73.74;102509.62;1764903;80;26991;-88
2020/12/08 01:46:21;;;;;;;20.62;5.90;;;;;;;-7.71;74.31;102513.63;1772763;79;21176;-89
2020/12/08 01:48:48;;;;;;;12.53;5.00;;;;;;;-7.66;73.66;102512.06;1748278;80;21078;-89
2020/12/08 01:51:19;;;;;;;15.10;5.70;;;;;;;-7.70;73.67;102504.87;1761615;80;21145;-88
2020/12/08 01:53:48;;;;;;;15.95;6.17;;;;;;;-7.55;73.43;102505.23;1749416;80;21172;-88
2020/12/08 01:56:15;;;;;;;20.20;6.78;;;;;;;-7.69;73.63;102510.94;1763609;80;21483;-89
2020/12/08 01:58:41;;;;;;;16.10;5.70;;;;;;;-7.63;74.07;102504.02;1764724;80;21483;-89
2020/12/08 02:01:11;;;;;;;12.50;5.05;;;;;;;-7.70;73.89;102505.34;1763544;80;21117;-89
2020/12/08 02:03:39;;;;;;;23.55;5.95;;;;;;;-7.77;73.90;102492.59;1758465;80;21340;-88
2020/12/08 02:06:05;;;;;;;22.15;5.90;;;;;;;-7.50;73.11;102502.78;1754327;80;21541;-88
2020/12/08 02:08:34;;;;;;;17.32;5.55;;;;;;;-7.50;72.92;102491.84;1767507;80;21145;-89
2020/12/08 02:11:01;;;;;;;16.73;5.72;;;;;;;-7.60;72.73;102482.89;1758800;80;21398;-88
2020/12/08 02:13:27;;;;;;;16.25;6.72;;;;;;;-7.76;72.99;102497.39;1763004;80;21109;-89
2020/12/08 02:15:53;;;;;;;20.08;5.83;;;;;;;-7.48;72.75;102499.61;1759984;80;21144;-89
2020/12/08 02:18:21;;;;;;;17.00;6.12;;;;;;;-7.39;71.76;102492.50;1765711;80;26972;-89
2020/12/08 02:20:57;;;;;;;20.57;5.35;;;;;;;-7.42;71.80;102497.92;1770548;80;21223;-89
2020/12/08 02:23:23;;;;;;;18.17;6.00;;;;;;;-7.60;72.84;102497.28;1670575;84;21368;-90
2020/12/08 02:25:59;;;;;;;19.45;5.62;;;;;;;-7.57;72.05;102486.63;1667408;84;21277;-88
2020/12/08 02:28:26;;;;;;;13.68;5.42;;;;;;;-7.47;72.26;102482.52;1637997;85;21392;-89
2020/12/08 02:30:52;;;;;;;16.80;5.28;;;;;;;-7.62;72.05;102478.20;1637380;85;21226;-89
2020/12/08 02:33:27;;;;;;;17.37;6.20;;;;;;;-7.80;73.29;102474.47;1644629;85;21341;-89
2020/12/08 02:35:55;;;;;;;17.62;5.62;;;;;;;-7.76;72.52;102472.53;1640023;86;21266;-89
2020/12/08 02:38:21;;;;;;;16.80;5.90;;;;;;;-7.75;73.15;102473.37;1645531;86;21257;-90
2020/12/08 02:40:47;;;;;;;17.02;6.10;;;;;;;-7.63;72.72;102469.52;1640772;86;21154;-88
2020/12/08 02:43:13;;;;;;;16.40;5.78;;;;;;;-7.63;72.60;102457.73;1646424;86;27527;-88
2020/12/08 02:45:41;;;;;;;24.15;6.42;;;;;;;-7.55;73.34;102449.42;1647611;86;21231;-89
2020/12/08 02:48:08;;;;;;;12.53;4.92;;;;;;;-7.22;71.94;102466.09;1646748;86;21176;-89
2020/12/08 02:50:35;;;;;;;20.20;6.62;;;;;;;-7.77;72.49;102445.50;1641191;86;21231;-89
2020/12/08 02:53:00;;;;;;;14.95;5.75;;;;;;;-7.42;72.67;102454.72;1641610;86;21208;-89
2020/12/08 02:55:26;;;;;;;18.07;6.12;;;;;;;-7.25;71.95;102436.17;1641407;86;27381;-89
2020/12/08 02:57:52;;;;;;;21.02;6.35;;;;;;;-7.36;72.61;102442.08;1655080;86;26637;-89
2020/12/08 03:00:18;;;;;;;16.25;5.53;;;;;;;-7.33;72.98;102430.09;1646323;86;20958;-89
2020/12/08 03:02:44;;;;;;;19.42;6.12;;;;;;;-7.68;73.57;102444.09;1638478;86;21884;-88
2020/12/08 03:05:09;;;;;;;22.17;6.30;;;;;;;-7.25;72.86;102450.57;1631474;86;21171;-88
2020/12/08 03:07:40;;;;;;;15.88;5.95;;;;;;;-7.15;72.43;102437.72;1637930;86;27214;-88
2020/12/08 03:10:07;;;;;;;15.68;5.30;;;;;;;-7.06;72.38;102431.88;1618875;86;22336;-89
2020/12/08 03:12:35;;;;;;;14.50;5.92;;;;;;;-7.50;72.95;102441.27;1632249;86;21505;-89
2020/12/08 03:15:05;;;;;;;17.05;6.70;;;;;;;-7.14;71.87;102453.35;1629337;86;21258;-89
2020/12/08 03:17:28;;;;;;;19.62;6.03;;;;;;;-7.14;71.50;102451.20;1634767;86;21378;-88
2020/12/08 03:19:54;;;;;;;17.77;6.35;;;;;;;-7.11;71.78;102460.18;1669104;83;27513;-89
2020/12/08 03:22:20;;;;;;;17.07;6.15;;;;;;;-7.21;72.18;102462.52;1696494;83;27127;-89
2020/12/08 03:24:48;;;;;;;16.65;5.40;;;;;;;-7.35;72.99;102466.03;1701011;82;20961;-90
2020/12/08 03:27:13;;;;;;;18.42;5.60;;;;;;;-7.15;72.03;102452.12;1753440;80;21198;-89
2020/12/08 03:29:39;;;;;;;15.10;5.55;;;;;;;-7.29;72.05;102457.39;1763593;80;21170;-89
2020/12/08 03:32:05;;;;;;;16.62;6.05;;;;;;;-7.27;72.63;102452.91;1760196;80;26933;-89
2020/12/08 03:34:31;;;;;;;17.30;5.17;;;;;;;-6.86;71.98;102456.32;1738464;81;27104;-89
2020/12/08 03:36:57;;;;;;;16.70;5.62;;;;;;;-7.24;72.19;102464.03;1755011;80;21620;-89
2020/12/08 03:39:23;;;;;;;15.40;5.83;;;;;;;-6.69;70.88;102457.02;1723939;80;20958;-89
2020/12/08 03:41:48;;;;;;;20.95;6.45;;;;;;;-7.21;71.38;102445.50;1748826;80;21046;-89
2020/12/08 03:44:14;;;;;;;14.87;4.67;;;;;;;-7.20;71.83;102468.62;1760701;80;26994;-88
2020/12/08 03:46:43;;;;;;;30.08;7.28;;;;;;;-7.08;70.52;102440.33;1766693;80;27080;-89
2020/12/08 03:49:09;;;;;;;20.88;6.60;;;;;;;-7.04;70.49;102455.38;1772323;80;21318;-89
2020/12/08 03:51:34;;;;;;;13.38;5.42;;;;;;;-6.92;69.74;102451.95;1748544;80;21090;-88
2020/12/08 03:54:00;;;;;;;14.75;4.75;;;;;;;-7.19;70.29;102438.87;1765716;81;21175;-89
2020/12/08 03:56:26;;;;;;;16.77;5.75;;;;;;;-7.33;70.41;102443.66;1766422;80;26950;-89
2020/12/08 03:58:52;;;;;;;14.83;5.58;;;;;;;-7.09;69.49;102447.36;1753991;81;26603;-90
2020/12/08 04:01:21;;;;;;;17.15;5.45;;;;;;;-7.07;69.93;102452.95;1752059;80;21528;-89
2020/12/08 04:03:51;;;;;;;20.32;5.80;;;;;;;-7.14;69.79;102453.35;1687934;83;21153;-88
2020/12/08 04:09:58;;;;;;;17.20;5.12;;;;;;;-7.01;69.99;102453.39;1691215;83;21598;-89
2020/12/08 04:12:23;;;;;;;16.15;5.47;;;;;;;-7.27;70.20;102478.63;1699942;83;26625;-89
2020/12/08 04:14:49;;;;;;;16.70;5.83;;;;;;;-7.29;70.47;102456.09;1695766;83;20938;-88
2020/12/08 04:17:20;;;;;;;14.35;5.17;;;;;;;-7.02;70.35;102452.20;1669387;83;21138;-90
2020/12/08 04:19:46;;;;;;;19.27;6.87;;;;;;;-7.25;70.39;102471.52;1662720;84;21207;-89
2020/12/08 04:22:13;;;;;;;22.58;7.42;;;;;;;-7.03;70.08;102485.39;1634812;86;21279;-90
2020/12/08 04:24:39;;;;;;;20.90;7.47;;;;;;;-7.03;70.10;102480.15;1637489;86;21179;-90
2020/12/08 04:30:45;;;;;;;22.77;7.50;;;;;;;-7.21;70.08;102473.47;1639690;86;21190;-90
2020/12/08 04:33:13;;;;;;;18.67;7.00;;;;;;;-7.12;69.97;102475.06;1647181;86;21173;-89
2020/12/08 04:35:38;;;;;;;17.32;5.80;;;;;;;-7.01;69.69;102478.28;1636996;86;21772;-88
2020/12/08 04:38:04;;;;;;;13.20;5.33;;;;;;;-7.10;69.86;102473.16;1620287;87;21200;-90
2020/12/08 04:40:30;;;;;;;17.05;5.15;;;;;;;-7.19;69.95;102471.61;1645206;86;20983;-89
2020/12/08 04:42:57;;;;;;;22.37;6.95;;;;;;;-7.55;70.95;102486.07;1631018;86;21063;-90
2020/12/08 04:45:23;;;;;;;25.08;8.25;;;;;;;-7.17;70.01;102484.14;1645191;87;21429;-90
2020/12/08 04:47:50;;;;;;;27.13;8.58;;;;;;;-7.10;70.39;102490.66;1682678;84;21144;-90
2020/12/08 04:50:19;;;;;;;14.50;5.35;;;;;;;-6.80;69.18;102485.22;1627806;87;21275;-90
2020/12/08 04:52:49;;;;;;;18.77;6.65;;;;;;;-6.96;69.49;102472.28;1628729;86;21608;-90
2020/12/08 04:55:15;;;;;;;16.15;5.03;;;;;;;-7.00;69.55;102475.19;1600671;88;21171;-89
2020/12/08 04:57:43;;;;;;;17.02;5.80;;;;;;;-7.48;70.23;102469.03;1626911;86;21959;-89
2020/12/08 05:00:12;;;;;;;23.65;7.35;;;;;;;-6.90;69.03;102475.81;1543206;91;21136;-90
2020/12/08 05:02:55;;;;;;;19.73;6.22;;;;;;;-7.01;69.15;102470.90;1562908;91;22005;-90
2020/12/08 05:05:22;;;;;;;19.25;5.92;;;;;;;-7.17;69.29;102479.74;1555752;90;21343;-89
2020/12/08 05:07:49;;;;;;;19.23;6.00;;;;;;;-7.16;69.06;102463.55;1561032;91;21244;-90
2020/12/08 05:10:28;;;;;;;16.60;6.33;;;;;;;-7.14;69.30;102482.64;1543279;91;21379;-89
2020/12/08 05:12:56;;;;;;;31.48;8.65;;;;;;;-7.19;69.26;102478.98;1552401;91;21731;-87
2020/12/08 05:15:22;;;;;;;19.67;6.80;;;;;;;-7.03;69.38;102475.38;1564214;88;21397;-89
2020/12/08 05:17:48;;;;;;;23.98;7.85;;;;;;;-6.99;68.86;102475.10;1621567;88;21231;-89
2020/12/08 05:20:17;;;;;;;20.85;7.08;;;;;;;-7.02;69.80;102484.47;1594423;88;21024;-89
2020/12/08 05:22:55;;;;;;;18.98;7.17;;;;;;;-6.84;68.96;102478.98;1608950;88;21161;-89
2020/12/08 05:25:25;;;;;;;21.33;6.83;;;;;;;-6.60;68.55;102482.62;1569425;89;21220;-90
2020/12/08 05:27:52;;;;;;;23.27;7.40;;;;;;;-7.00;69.81;102484.36;1554382;90;21237;-90
2020/12/08 05:30:19;;;;;;;19.60;6.40;;;;;;;-7.29;70.64;102486.20;1562361;89;21280;-91
2020/12/08 05:32:46;;;;;;;21.57;6.15;;;;;;;-7.19;71.10;102475.53;1547119;89;21155;-89
2020/12/08 05:38:20;;;;;;;26.07;8.43;;;;;;;-6.80;70.52;102478.67;1566015;89;21233;-89
2020/12/08 05:40:50;;;;;;;30.12;8.75;;;;;;;-7.08;72.25;102486.17;1564963;91;21219;-90
2020/12/08 05:43:19;;;;;;;28.80;9.43;;;;;;;-6.94;72.33;102484.83;1553328;89;21624;-89
2020/12/08 05:45:50;;;;;;;27.85;10.00;;;;;;;-7.05;72.56;102476.81;1560212;90;21207;-90
2020/12/08 05:48:22;;;;;;;21.70;7.55;;;;;;;-6.63;71.48;102498.55;1550375;91;21247;-90
2020/12/08 05:50:48;;;;;;;21.77;6.97;;;;;;;-6.89;72.29;102481.41;1563467;89;21306;-91
2020/12/08 05:53:17;;;;;;;18.37;5.92;;;;;;;-6.88;72.47;102483.12;1565843;91;21405;-89
2020/12/08 05:55:43;;;;;;;18.00;7.12;;;;;;;-6.87;72.37;102484.79;1564609;90;21275;-90
2020/12/08 05:58:12;;;;;;;15.23;5.53;;;;;;;-6.71;71.91;102484.63;1583350;89;21511;-89
2020/12/08 06:00:39;;;;;;;27.15;6.87;;;;;;;-6.80;71.67;102464.26;1592704;89;21745;-89
2020/12/08 06:03:12;;;;;;;23.35;7.28;;;;;;;-6.92;72.83;102489.95;1599469;89;21251;-90
2020/12/08 06:09:29;;;;;;;16.50;6.37;;;;;;;-7.06;73.58;102482.97;1594197;89;21249;-90
2020/12/08 06:11:55;;;;;;;19.30;7.08;;;;;;;-6.73;72.70;102477.34;1572461;89;21283;-89
2020/12/08 06:14:33;;;;;;;17.30;6.47;;;;;;;-6.74;73.17;102490.54;1586698;90;21112;-89
2020/12/08 06:17:05;;;;;;;21.82;7.65;;;;;;;-6.77;73.55;102510.40;1564435;89;21745;-90
2020/12/08 06:19:33;;;;;;;21.05;6.30;;;;;;;-6.95;74.39;102504.56;1583546;89;21614;-89
2020/12/08 06:22:12;;;;;;;19.80;5.80;;;;;;;-6.78;73.96;102502.17;1605286;88;21168;-90
2020/12/08 06:24:55;;;;;;;19.37;6.12;;;;;;;-6.79;74.61;102504.41;1583721;87;21302;-89
2020/12/08 06:27:23;;;;;;;19.87;7.05;;;;;;;-6.70;73.78;102505.15;1619785;87;21200;-90
2020/12/08 06:29:54;;;;;;;21.45;7.17;;;;;;;-6.32;72.47;102487.33;1637620;85;21236;-89
2020/12/08 06:32:28;;;;;;;19.00;6.83;;;;;;;-6.63;73.16;102485.44;1647713;86;21205;-89
2020/12/08 06:35:12;;;;;;;24.90;8.98;;;;;;;-6.83;74.03;102490.66;1637421;86;21200;-89
2020/12/08 06:37:53;;;;;;;31.05;9.65;;;;;;;-6.63;73.94;102491.52;1647809;85;21258;-90
2020/12/08 06:40:23;;;;;;;26.45;7.47;;;;;;;-6.20;73.30;102491.30;1588032;89;21422;-89
2020/12/08 06:42:50;;;;;;;25.20;7.42;;;;;;;-6.38;73.75;102495.61;1588712;89;21230;-89
2020/12/08 06:45:22;;;;;;;18.65;6.03;;;;;;;-6.19;73.52;102496.08;1597819;88;21272;-89
2020/12/08 06:47:49;;;;;;;16.65;6.05;;;;;;;-6.47;74.12;102500.99;1601213;88;21168;-89
2020/12/08 06:50:28;;;;;;;23.65;7.50;;;;;;;-6.26;74.30;102493.03;1582619;89;21539;-89
2020/12/08 06:52:57;;;;;;;28.25;8.38;;;;;;;-6.22;74.02;102489.25;1583093;88;21250;-90
2020/12/08 06:55:26;;;;;;;25.25;8.38;;;;;;;-6.42;75.05;102473.52;1580698;88;21553;-90
2020/12/08 06:57:52;;;;;;;24.43;7.08;;;;;;;-6.14;74.13;102483.49;1576074;89;21631;-89
2020/12/08 07:00:19;;;;;;;21.87;6.42;;;;;;;-6.19;74.24;102475.09;1586137;89;21183;-89
2020/12/08 07:06:26;;;;;;;23.52;7.50;;;;;;;-6.17;75.94;102462.72;1606310;88;21663;-89
2020/12/08 07:08:55;;;;;;;21.65;7.12;;;;;;;-5.66;73.83;102473.15;1628391;86;21671;-90
2020/12/08 07:11:24;;;;;;;23.47;6.30;;;;;;;-5.81;73.50;102473.74;1611757;87;21219;-89
2020/12/08 07:13:58;;;;;;;22.70;7.35;;;;;;;-5.87;73.49;102469.40;1609549;87;21227;-90
2020/12/08 07:16:26;;;;;;;22.07;7.58;;;;;;;-5.59;72.98;102465.23;1563286;91;21215;-89
2020/12/08 07:18:54;;;;;;;21.42;6.30;;;;;;;-5.25;71.87;102469.39;1560104;90;21720;-90
2020/12/08 07:21:21;;;;;;;32.65;9.73;;;;;;;-5.31;71.92;102465.41;1560227;90;21243;-90
2020/12/08 07:23:53;;;;;;;30.77;8.05;;;;;;;-5.20;72.45;102475.16;1565547;90;21223;-90
2020/12/08 07:37:38;;;;;;;17.40;6.40;;;;;;;-1.94;62.16;102462.27;1486346;95;21832;-90
2020/12/08 07:40:06;;;;;;;;;;;;;;;-2.87;63.51;102467.82;1491141;95;21726;-92
2020/12/08 07:45:46;;;;;;;;;;;;;;;-2.62;62.68;102472.39;1518137;93;21215;-91
2020/12/08 07:48:19;;;;;;;20.90;6.08;;;;;;;-2.91;59.80;102480.91;1527399;93;20266;-91
2020/12/08 07:50:45;;;;;;;;;;;;;;;-1.92;58.55;102469.59;1513173;93;21571;-92
2020/12/08 07:53:13;;;;;;;23.18;7.40;;;;;;;0.19;52.41;102465.11;1518471;93;20326;-92
2020/12/08 07:55:44;;;;;;;15.93;7.40;;;;;;;0.41;49.49;102464.38;1518822;93;21261;-92
2020/12/08 07:58:10;;;;;;;23.15;8.50;;;;;;;1.67;46.84;102469.31;1522626;93;21324;-93
2020/12/08 08:04:18;;;;;;;51.50;12.53;;;;;;;0.93;44.29;102486.39;1527767;93;21243;-88
2020/12/08 08:09:26;;;;;;;34.65;9.73;;;;;;;0.29;44.86;102445.17;1392697;102;21380;-88
2020/12/08 08:11:53;;;;;;;28.23;8.40;;;;;;;1.26;43.66;102457.84;1391441;102;21260;-88
2020/12/08 08:14:20;;;;;;;28.95;9.13;;;;;;;0.82;42.77;102450.28;1426760;100;21284;-88
2020/12/08 08:16:48;;;;;;;36.75;10.15;;;;;;;0.80;42.62;102470.84;1428242;100;21156;-88
2020/12/08 08:19:15;;;;;;;21.62;6.95;;;;;;;0.23;44.30;102455.04;1427483;99;21362;-87
2020/12/08 08:21:45;;;;;;;21.02;6.65;;;;;;;-1.62;47.44;102468.75;1423969;99;21333;-88
2020/12/08 08:24:12;;;;;;;20.55;6.40;;;;;;;-2.18;49.16;102459.44;1420076;100;21413;-88
2020/12/08 08:44:17;;;;;;;16.45;5.30;;;;;;;-2.77;51.75;102434.92;1412471;99;21295;-87
2020/12/08 08:46:44;;;;;;;25.80;6.92;;;;;;;-3.59;53.34;102439.80;1434337;96;21529;-88
2020/12/08 08:51:38;;;;;;;20.45;6.83;;;;;;;-3.29;52.86;102433.42;1479997;96;21213;-88
2020/12/08 08:54:05;;;;;;;16.52;5.47;;;;;;;-3.15;52.46;102424.87;1463703;96;21195;-88
2020/12/08 08:56:31;;;;;;;19.70;6.78;;;;;;;-3.59;53.22;102414.30;1459308;95;21200;-89
2020/12/08 08:58:57;;;;;;;16.42;5.05;;;;;;;-3.40;53.13;102405.77;1461765;95;21251;-88
2020/12/08 09:01:23;;;;;;;16.62;5.60;;;;;;;-3.67;52.79;102418.03;1482373;95;21578;-89
2020/12/08 09:03:50;;;;;;;21.73;6.37;;;;;;;-3.67;53.48;102405.70;1472071;96;21319;-89
2020/12/08 09:06:16;;;;;;;17.12;6.22;;;;;;;-3.12;52.16;102400.89;1560894;84;21401;-89
2020/12/08 09:08:42;;;;;;;38.17;9.75;;;;;;;-2.67;51.31;102411.27;1672071;84;21248;-90
2020/12/08 09:11:08;;;;;;;29.20;8.65;;;;;;;-2.73;50.78;102424.97;1686417;84;21158;-90
2020/12/08 09:13:35;;;;;;;32.80;7.03;;;;;;;-2.22;49.89;102406.54;1684947;84;21096;-87
2020/12/08 09:16:01;;;;;;;18.27;6.55;;;;;;;-2.30;50.38;102414.27;1681956;84;21195;-88
2020/12/08 09:18:28;;;;;;;21.55;7.35;;;;;;;-2.30;50.41;102407.67;1682184;84;21258;-88
2020/12/08 09:20:54;;;;;;;18.52;6.42;;;;;;;-2.38;50.69;102402.19;1679672;84;21190;-88
2020/12/08 09:23:22;;;;;;;26.95;6.67;;;;;;;-2.46;50.01;102391.47;1674624;84;21196;-88
2020/12/08 09:25:50;;;;;;;28.05;7.15;;;;;;;-2.53;49.79;102403.88;1670610;84;21064;-89
2020/12/08 09:31:58;;;;;;;21.80;6.12;;;;;;;-2.13;48.34;102396.50;1751136;80;21311;-89
2020/12/08 09:34:24;;;;;;;21.15;6.15;;;;;;;-1.71;47.58;102385.81;1754097;80;21149;-88
2020/12/08 09:36:52;;;;;;;24.95;5.25;;;;;;;-1.96;48.24;102383.66;1755809;80;21112;-90
2020/12/08 09:39:19;;;;;;;21.00;5.00;;;;;;;-1.84;47.01;102397.95;1770536;80;22238;-91
2020/12/08 09:41:46;;;;;;;15.25;5.03;;;;;;;-1.36;45.11;102376.58;1759551;80;21113;-89
2020/12/08 09:44:12;;;;;;;16.55;6.10;;;;;;;-1.64;45.73;102375.56;1757809;80;21834;-89
2020/12/08 09:46:41;;;;;;;16.52;5.42;;;;;;;-1.29;45.76;102367.14;1760194;80;21491;-90
2020/12/08 09:49:12;;;;;;;13.55;3.83;;;;;;;-1.62;46.08;102371.81;1706486;83;21160;-90
2020/12/08 09:51:38;;;;;;;21.75;5.40;;;;;;;-1.93;46.58;102371.50;1681844;83;21645;-90
2020/12/08 09:54:05;;;;;;;17.67;5.97;;;;;;;-1.75;45.37;102380.46;1697293;83;21489;-90
2020/12/08 09:56:32;;;;;;;21.05;6.10;;;;;;;-1.47;43.82;102360.37;1698446;83;21874;-89
2020/12/08 09:58:58;;;;;;;17.87;4.67;;;;;;;-1.24;43.72;102366.70;1683403;83;21010;-89
2020/12/08 10:01:30;;;;;;;23.52;6.58;;;;;;;-1.78;44.76;102373.30;1709836;83;21207;-89
2020/12/08 10:03:56;;;;;;;16.07;5.00;;;;;;;-1.50;44.37;102349.20;1710200;83;21216;-90
2020/12/08 10:06:23;;;;;;;16.42;5.03;;;;;;;-1.33;44.39;102364.40;1700439;83;21286;-89
2020/12/08 10:08:50;;;;;;;17.50;4.90;;;;;;;-1.56;43.58;102349.27;1694138;83;22078;-89
2020/12/08 10:11:16;;;;;;;20.32;5.53;;;;;;;-1.56;42.86;102351.91;1688524;83;21211;-89
2020/12/08 10:13:43;;;;;;;19.20;5.37;;;;;;;-1.56;42.42;102341.33;1687046;84;21728;-89
2020/12/08 10:16:10;;;;;;;16.77;4.87;;;;;;;-1.42;42.67;102363.41;1660467;83;21674;-90
2020/12/08 10:18:36;;;;;;;33.13;5.75;;;;;;;-1.39;41.70;102346.44;1697289;83;21184;-89
2020/12/08 10:21:03;;;;;;;20.92;5.40;;;;;;;-0.82;40.35;102348.75;1700661;83;21994;-89
2020/12/08 10:23:29;;;;;;;22.02;5.17;;;;;;;-0.96;39.68;102346.03;1688945;83;21199;-90
2020/12/08 10:33:17;;;;;;;26.90;7.80;;;;;;;-0.85;40.74;102342.41;1687347;83;21231;-91
2020/12/08 10:35:43;;;;;;;21.45;6.45;;;;;;;-0.67;40.14;102345.17;1690079;83;21758;-92
2020/12/08 10:38:15;;;;;;;18.25;6.03;;;;;;;-0.43;39.05;102337.23;1698775;83;21097;-92
2020/12/08 10:40:40;;;;;;;28.05;6.58;;;;;;;-0.84;39.57;102345.40;1705797;83;21200;-91
2020/12/08 10:43:06;;;;;;;25.62;5.47;;;;;;;-0.90;39.06;102358.36;1702951;83;21309;-92
2020/12/08 10:45:32;;;;;;;15.58;4.28;;;;;;;-0.84;39.27;102333.48;1714578;80;21109;-92
2020/12/08 10:47:59;;;;;;;14.40;5.30;;;;;;;-1.28;39.34;102325.66;1702741;81;21188;-91
2020/12/08 10:50:25;;;;;;;14.98;4.28;;;;;;;-0.97;39.39;102335.58;1729203;81;20970;-92
2020/12/08 10:52:51;;;;;;;22.17;6.08;;;;;;;-1.10;38.53;102312.56;1750953;80;21153;-91
2020/12/08 10:55:18;;;;;;;16.48;4.40;;;;;;;-0.88;38.19;102314.91;1742832;80;21605;-92
2020/12/08 10:57:44;;;;;;;14.38;4.90;;;;;;;-0.73;37.03;102310.84;1750905;81;21535;-90
2020/12/08 11:00:11;;;;;;;12.68;4.22;;;;;;;-0.77;37.61;102317.38;1755719;80;21958;-91
2020/12/08 11:02:37;;;;;;;15.28;4.12;;;;;;;-1.31;38.55;102304.28;1726361;81;21819;-92
2020/12/08 11:05:06;;;;;;;17.45;4.50;;;;;;;-1.15;38.80;102303.70;1759120;80;21520;-91
2020/12/08 11:07:31;;;;;;;13.13;4.35;;;;;;;-0.97;39.44;102306.47;1753257;80;21129;-92
2020/12/08 11:13:26;;;;;;;10.53;4.12;;;;;;;-0.70;37.65;102299.13;1751265;80;21168;-91
2020/12/08 11:15:52;;;;;;;13.58;3.87;;;;;;;-0.76;38.50;102299.22;1757797;80;21677;-91
2020/12/08 11:22:06;;;;;;;16.00;5.28;;;;;;;-0.57;38.37;102306.75;1751224;80;21152;-94
2020/12/08 11:24:33;;;;;;;19.92;5.70;;;;;;;-0.58;37.63;102290.03;1728547;82;21581;-91
2020/12/08 11:26:59;;;;;;;17.00;3.98;;;;;;;-0.83;37.90;102288.83;1708770;82;21284;-92
2020/12/08 11:29:25;;;;;;;10.63;4.03;;;;;;;-1.33;38.94;102294.81;1713400;82;21220;-91
2020/12/08 11:31:52;;;;;;;11.95;3.37;;;;;;;-1.08;38.65;102300.87;1735676;82;21215;-91
2020/12/08 11:34:19;;;;;;;15.70;4.17;;;;;;;-1.21;38.38;102306.42;1733748;82;21203;-91
2020/12/08 11:36:45;;;;;;;15.58;4.17;;;;;;;-0.71;38.31;102298.77;1728479;82;21152;-89
2020/12/08 11:39:12;;;;;;;15.98;4.55;;;;;;;-1.22;38.41;102294.19;1729263;82;21234;-87
2020/12/08 11:41:42;;;;;;;14.83;4.47;;;;;;;-0.74;38.33;102296.41;1734339;82;21617;-88
2020/12/08 11:47:49;;;;;;;14.73;4.35;;;;;;;-1.04;38.88;102289.51;1735726;82;21176;-89
2020/12/08 11:50:15;;;;;;;11.93;4.40;;;;;;;-0.93;38.78;102282.25;1714813;82;21144;-88
2020/12/08 11:52:42;;;;;;;14.47;3.77;;;;;;;-0.58;38.25;102274.64;1714500;82;21279;-89
2020/12/08 11:55:08;;;;;;;15.58;4.28;;;;;;;-1.09;38.43;102280.66;1723111;82;21183;-89
2020/12/08 11:57:35;;;;;;;12.68;3.90;;;;;;;-0.98;38.54;102281.00;1716627;82;21224;-89
2020/12/08 12:00:02;;;;;;;11.25;3.80;;;;;;;-0.90;38.67;102283.78;1716866;82;21202;-89
2020/12/08 12:02:29;;;;;;;12.35;3.83;;;;;;;-1.11;39.02;102290.56;1725124;82;21156;-89
2020/12/08 12:04:55;;;;;;;13.32;4.50;;;;;;;-1.02;39.00;102292.36;1727159;82;21289;-89
2020/12/08 12:07:21;;;;;;;15.18;5.00;;;;;;;-0.79;38.61;102305.28;1714216;82;21159;-89
2020/12/08 12:09:47;;;;;;;9.73;3.75;;;;;;;-0.78;38.58;102289.25;1717350;82;21318;-89
2020/12/08 12:12:13;;;;;;;14.80;4.00;;;;;;;-1.15;39.52;102300.60;1712755;82;21298;-89
2020/12/08 12:14:40;;;;;;;13.35;4.75;;;;;;;-0.87;39.41;102300.69;1712561;82;21338;-89
2020/12/08 12:17:06;;;;;;;16.90;4.97;;;;;;;-0.85;39.30;102297.42;1729499;82;21239;-89
2020/12/08 12:19:32;;;;;;;12.58;3.95;;;;;;;-1.10;40.09;102298.84;1703549;82;21331;-91
2020/12/08 12:22:00;;;;;;;16.10;3.98;;;;;;;-1.05;39.94;102305.05;1747314;81;21126;-92
2020/12/08 12:28:06;;;;;;;14.15;4.60;;;;;;;-1.01;40.47;102303.28;1772652;80;21557;-90
2020/12/08 12:30:33;;;;;;;14.93;4.45;;;;;;;-1.01;40.55;102299.80;1778929;80;21987;-92
2020/12/08 12:32:59;;;;;;;14.35;3.77;;;;;;;-0.84;40.66;102305.70;1774510;80;20974;-90
2020/12/08 12:35:25;;;;;;;18.27;5.08;;;;;;;-1.17;41.52;102295.93;1763984;80;21553;-92
2020/12/08 12:41:32;;;;;;;17.27;4.30;;;;;;;-1.10;41.19;102300.16;1764765;80;21125;-90
2020/12/08 12:44:00;;;;;;;14.70;3.60;;;;;;;-1.18;41.20;102295.59;1758538;81;21618;-91
2020/12/08 12:46:27;;;;;;;15.28;4.15;;;;;;;-1.00;40.53;102289.09;1766820;80;21141;-91